Time,TemperatureF,DewpointF,PressureIn,WindDirection,WindDirectionDegrees,WindSpeedMPH,WindSpeedGustMPH,Humidity,HourlyPrecipIn,Conditions,Clouds,dailyrainin,SoftwareType,DateUTC
2013-10-23 00:00:00,32.5,26.7,29.79,NW,308,0.0,0.0,79,0.00,,SCT,0.00,VWS V14.00,2013-10-23 04:00:00,
2013-10-23 00:02:00,40.8,33.1,29.82,South,191,3.9,8.5,74,0.00,,SCT,0.00,VWS V14.00,2013-10-23 04:02:00,
2013-10-23 00:07:00,40.8,33.1,29.82,South,190,2.1,8.5,74,0.00,,SCT,0.00,VWS V14.00,2013-10-23 04:07:00,
2013-10-23 00:12:00,40.9,33.2,29.82,SSW,201,2.7,8.5,74,0.00,,SCT,0.00,VWS V14.00,2013-10-23 04:12:00,
2013-10-23 00:17:00,40.8,33.1,29.82,SE,136,0.0,8.5,74,0.00,,SCT,0.00,VWS V14.00,2013-10-23 04:17:00,
2013-10-23 00:22:00,40.7,33.2,29.82,SW,222,2.9,8.5,74,0.00,,SCT,0.00,VWS V14.00,2013-10-23 04:22:00,
2013-10-23 00:27:00,40.6,33.1,29.82,South,191,4.4,8.5,74,0.00,,SCT,0.00,VWS V14.00,2013-10-23 04:27:00,
2013-10-23 00:28:00,40.6,33.1,29.82,South,188,3.9,8.5,74,0.00,,SCT,0.00,VWS V14.00,2013-10-23 04:28:00,
2013-10-23 00:30:00,38.9,32.3,29.82,SW,231,5.2,6.8,77,0.00,,SCT,0.14,VWS V14.00,2013-10-23 04:30:00,
2013-10-23 00:37:00,40.4,33.0,29.82,SSW,193,0.0,4.8,75,0.00,,SCT,0.00,VWS V14.00,2013-10-23 04:37:00,
2013-10-23 00:42:00,40.4,33.0,29.82,SSW,205,2.2,4.8,75,0.00,,SCT,0.00,VWS V14.00,2013-10-23 04:42:00,
2013-10-23 00:47:00,40.3,33.0,29.82,South,183,0.0,4.8,75,0.00,,SCT,0.00,VWS V14.00,2013-10-23 04:47:00,
2013-10-23 00:52:00,40.1,32.9,29.82,SSE,160,0.0,4.8,75,0.00,,SCT,0.00,VWS V14.00,2013-10-23 04:52:00,
2013-10-23 00:57:00,39.9,32.9,29.82,SSE,156,0.0,4.8,76,0.00,,SCT,0.00,VWS V14.00,2013-10-23 04:57:00,
2013-10-23 01:02:00,39.8,32.9,29.82,SW,229,3.7,3.7,76,0.00,,SCT,0.00,VWS V14.00,2013-10-23 05:02:00,
2013-10-23 01:07:00,39.6,33.0,29.82,South,174,0.0,5.9,77,0.00,,SCT,0.00,VWS V14.00,2013-10-23 05:07:00,
2013-10-23 01:12:00,39.6,33.1,29.82,SSE,149,0.0,5.9,77,0.00,,SCT,0.00,VWS V14.00,2013-10-23 05:12:00,
2013-10-23 01:17:00,39.5,33.1,29.82,SSE,149,0.0,5.9,78,0.00,,SCT,0.00,VWS V14.00,2013-10-23 05:17:00,
2013-10-23 01:22:00,39.3,33.0,29.82,SE,131,0.0,5.9,78,0.00,,SCT,0.00,VWS V14.00,2013-10-23 05:22:00,
2013-10-23 01:27:00,39.4,33.4,29.83,WSW,245,2.7,5.9,79,0.00,,SCT,0.00,VWS V14.00,2013-10-23 05:27:00,
2013-10-23 01:30:00,40.6,33.1,29.82,South,188,3.9,8.5,74,0.00,,SCT,0.00,VWS V14.00,2013-10-23 05:30:00,
2013-10-23 01:32:00,39.4,33.5,29.82,SW,218,2.4,5.7,79,0.00,,SCT,0.00,VWS V14.00,2013-10-23 05:32:00,
2013-10-23 01:37:00,39.4,33.5,29.82,SW,221,0.0,5.7,79,0.00,,SCT,0.00,VWS V14.00,2013-10-23 05:37:00,
2013-10-23 01:42:00,39.3,33.6,29.82,SW,232,3.4,6.8,80,0.00,,SCT,0.00,VWS V14.00,2013-10-23 05:42:00,
2013-10-23 01:47:00,39.2,33.6,29.83,SW,218,0.0,6.8,80,0.00,,SCT,0.00,VWS V14.00,2013-10-23 05:47:00,
2013-10-23 01:52:00,39.1,33.6,29.82,SSW,211,2.5,6.8,80,0.00,,SCT,0.00,VWS V14.00,2013-10-23 05:52:00,
2013-10-23 01:57:00,39.1,33.6,29.82,South,170,0.0,6.8,80,0.00,,SCT,0.00,VWS V14.00,2013-10-23 05:57:00,
2013-10-23 02:00:00,40.0,32.9,29.82,SSE,156,0.0,4.8,76,0.00,,SCT,0.00,VWS V14.00,2013-10-23 06:00:00,
2013-10-23 02:02:00,39.1,33.6,29.83,South,170,0.0,0.0,80,0.00,,SCT,0.00,VWS V14.00,2013-10-23 06:02:00,
2013-10-23 02:07:00,39.0,33.6,29.83,South,170,0.0,0.0,81,0.00,,SCT,0.00,VWS V14.00,2013-10-23 06:07:00,
2013-10-23 02:12:00,38.9,33.6,29.83,South,170,0.0,0.0,81,0.00,,SCT,0.00,VWS V14.00,2013-10-23 06:12:00,
2013-10-23 02:17:00,38.6,33.4,29.83,SSW,210,0.0,2.9,81,0.00,,SCT,0.00,VWS V14.00,2013-10-23 06:17:00,
2013-10-23 02:23:00,38.6,33.5,29.83,SSW,210,0.0,2.9,82,0.00,,SCT,0.00,VWS V14.00,2013-10-23 06:23:00,
2013-10-23 02:28:00,38.5,33.5,29.83,SSW,194,1.2,3.7,82,0.00,,SCT,0.00,VWS V14.00,2013-10-23 06:28:00,
2013-10-23 02:30:00,39.5,33.5,29.83,SW,236,3.3,5.9,79,0.00,,SCT,0.00,VWS V14.00,2013-10-23 06:30:00,
2013-10-23 02:33:00,38.3,33.4,29.83,South,177,2.5,3.7,82,0.00,,SCT,0.00,VWS V14.00,2013-10-23 06:33:00,
2013-10-23 02:38:00,38.3,33.5,29.83,South,176,0.0,3.7,83,0.00,,SCT,0.00,VWS V14.00,2013-10-23 06:38:00,
2013-10-23 02:43:00,38.2,33.4,29.82,SW,224,3.4,3.7,83,0.00,,SCT,0.00,VWS V14.00,2013-10-23 06:43:00,
2013-10-23 02:48:00,37.9,33.2,29.82,SW,229,1.7,3.7,83,0.00,,SCT,0.00,VWS V14.00,2013-10-23 06:48:00,
2013-10-23 02:53:00,37.8,33.3,29.82,SW,228,2.9,4.2,84,0.00,,SCT,0.00,VWS V14.00,2013-10-23 06:53:00,
2013-10-23 02:58:00,37.9,33.5,29.82,SW,215,3.5,4.3,84,0.00,,SCT,0.00,VWS V14.00,2013-10-23 06:58:00,
2013-10-23 03:00:00,39.1,33.6,29.82,South,170,0.0,6.8,80,0.00,,SCT,0.00,VWS V14.00,2013-10-23 07:00:00,
2013-10-23 03:03:00,37.9,33.5,29.82,South,172,0.9,5.9,84,0.00,,SCT,0.00,VWS V14.00,2013-10-23 07:03:00,
2013-10-23 03:08:00,37.8,33.5,29.82,South,191,0.0,5.9,84,0.00,,SCT,0.00,VWS V14.00,2013-10-23 07:08:00,
2013-10-23 03:13:00,37.8,33.5,29.82,SW,226,1.6,5.9,84,0.00,,SCT,0.00,VWS V14.00,2013-10-23 07:13:00,
2013-10-23 03:18:00,37.8,33.5,29.82,SW,231,1.6,5.9,84,0.00,,SCT,0.00,VWS V14.00,2013-10-23 07:18:00,
2013-10-23 03:23:00,37.7,33.4,29.82,SSE,163,1.9,5.9,84,0.00,,SCT,0.00,VWS V14.00,2013-10-23 07:23:00,
2013-10-23 03:28:00,37.7,33.4,29.82,SSW,201,0.0,0.0,84,0.00,,SCT,0.00,VWS V14.00,2013-10-23 07:28:00,
2013-10-23 03:30:00,38.3,33.3,29.83,SW,215,1.6,3.7,82,0.00,,SCT,0.00,VWS V14.00,2013-10-23 07:30:00,
2013-10-23 03:33:00,37.8,33.5,29.82,SSW,201,0.0,0.0,84,0.00,,SCT,0.00,VWS V14.00,2013-10-23 07:33:00,
2013-10-23 03:38:00,37.7,33.4,29.82,SSW,201,0.0,0.0,84,0.00,,SCT,0.00,VWS V14.00,2013-10-23 07:38:00,
2013-10-23 03:43:00,37.7,33.4,29.82,SSW,201,0.0,0.0,84,0.00,,SCT,0.00,VWS V14.00,2013-10-23 07:43:00,
2013-10-23 03:48:00,37.4,33.2,29.82,SSW,201,0.0,0.0,85,0.00,,SCT,0.00,VWS V14.00,2013-10-23 07:48:00,
2013-10-23 03:53:00,37.3,33.2,29.82,SSW,201,0.0,0.0,85,0.00,,SCT,0.00,VWS V14.00,2013-10-23 07:53:00,
2013-10-23 03:58:00,37.3,33.3,29.82,SSW,201,0.0,0.0,85,0.00,,SCT,0.00,VWS V14.00,2013-10-23 07:58:00,
2013-10-23 04:00:00,37.9,33.5,29.82,SW,215,3.5,4.3,84,0.00,,SCT,0.00,VWS V14.00,2013-10-23 08:00:00,
2013-10-23 04:03:00,37.3,33.3,29.82,SSW,201,0.0,0.0,85,0.00,,SCT,0.00,VWS V14.00,2013-10-23 08:03:00,
2013-10-23 04:08:00,37.3,33.3,29.82,SSW,201,0.0,0.0,85,0.00,,SCT,0.00,VWS V14.00,2013-10-23 08:08:00,
2013-10-23 04:13:00,37.4,33.4,29.82,SSW,201,0.0,0.0,85,0.00,,SCT,0.00,VWS V14.00,2013-10-23 08:13:00,
2013-10-23 04:18:00,37.3,33.4,29.81,SSW,201,0.0,0.0,86,0.00,,SCT,0.00,VWS V14.00,2013-10-23 08:18:00,
2013-10-23 04:23:00,37.5,33.6,29.82,SSW,201,0.0,0.0,86,0.00,,SCT,0.00,VWS V14.00,2013-10-23 08:23:00,
2013-10-23 04:28:00,37.4,33.5,29.82,SSW,201,0.0,0.0,86,0.00,,SCT,0.00,VWS V14.00,2013-10-23 08:28:00,
2013-10-23 04:30:00,37.8,33.5,29.82,SSW,201,0.0,5.9,84,0.00,,SCT,0.00,VWS V14.00,2013-10-23 08:30:00,
2013-10-23 04:33:00,37.3,33.3,29.82,SSW,201,0.0,0.0,85,0.00,,SCT,0.00,VWS V14.00,2013-10-23 08:33:00,
2013-10-23 04:38:00,37.2,33.3,29.82,SSW,201,0.0,0.0,86,0.00,,SCT,0.00,VWS V14.00,2013-10-23 08:38:00,
2013-10-23 04:43:00,37.3,33.6,29.82,SSW,201,0.0,0.0,86,0.00,,SCT,0.00,VWS V14.00,2013-10-23 08:43:00,
2013-10-23 04:48:00,37.3,33.5,29.82,SSW,201,0.0,0.0,86,0.00,,SCT,0.00,VWS V14.00,2013-10-23 08:48:00,
2013-10-23 04:53:00,36.9,33.1,29.82,SSW,201,0.0,0.0,86,0.00,,SCT,0.00,VWS V14.00,2013-10-23 08:53:00,
2013-10-23 04:58:00,36.5,32.8,29.82,SSW,201,0.0,0.0,86,0.00,,SCT,0.00,VWS V14.00,2013-10-23 08:58:00,
2013-10-23 05:00:00,37.3,33.3,29.82,SSW,201,0.0,0.0,85,0.00,,SCT,0.00,VWS V14.00,2013-10-23 09:00:00,
2013-10-23 05:03:00,36.2,32.5,29.82,SSW,201,0.0,0.0,86,0.00,,SCT,0.00,VWS V14.00,2013-10-23 09:03:00,
2013-10-23 05:08:00,35.8,32.1,29.82,SSW,201,0.0,0.0,86,0.00,,SCT,0.00,VWS V14.00,2013-10-23 09:08:00,
2013-10-23 05:13:00,35.4,31.9,29.82,SSW,201,0.0,0.0,87,0.00,,SCT,0.00,VWS V14.00,2013-10-23 09:13:00,
2013-10-23 05:18:00,35.2,32.0,29.82,SSW,201,0.0,0.0,88,0.00,,SCT,0.00,VWS V14.00,2013-10-23 09:18:00,
2013-10-23 05:23:00,35.3,32.4,29.82,SSW,201,0.0,0.0,89,0.00,,SCT,0.00,VWS V14.00,2013-10-23 09:23:00,
2013-10-23 05:28:00,35.5,32.7,29.82,SSW,201,0.0,0.0,89,0.00,,SCT,0.00,VWS V14.00,2013-10-23 09:28:00,
2013-10-23 05:30:00,37.4,33.5,29.82,SSW,201,0.0,0.0,86,0.00,,SCT,0.00,VWS V14.00,2013-10-23 09:30:00,
2013-10-23 05:33:00,35.5,32.5,29.82,SSW,201,0.0,0.0,89,0.00,,SCT,0.00,VWS V14.00,2013-10-23 09:33:00,
2013-10-23 05:38:00,35.4,32.5,29.82,SSW,201,0.0,0.0,89,0.00,,SCT,0.00,VWS V14.00,2013-10-23 09:38:00,
2013-10-23 05:43:00,35.7,33.0,29.82,SSW,201,0.0,0.0,90,0.00,,SCT,0.00,VWS V14.00,2013-10-23 09:43:00,
2013-10-23 05:48:00,35.8,33.0,29.82,SSW,201,0.0,0.0,89,0.00,,SCT,0.00,VWS V14.00,2013-10-23 09:48:00,
2013-10-23 05:53:00,36.0,33.2,29.81,SSW,201,0.0,0.0,89,0.00,,SCT,0.00,VWS V14.00,2013-10-23 09:53:00,
2013-10-23 05:58:00,36.2,33.3,29.82,SSW,201,0.0,0.0,89,0.00,,SCT,0.00,VWS V14.00,2013-10-23 09:58:00,
2013-10-23 06:00:00,36.5,32.8,29.82,SSW,201,0.0,0.0,86,0.00,,SCT,0.00,VWS V14.00,2013-10-23 10:00:00,
2013-10-23 06:03:00,36.4,33.5,29.82,SSW,201,0.0,0.0,89,0.00,,SCT,0.00,VWS V14.00,2013-10-23 10:03:00,
2013-10-23 06:08:00,36.5,33.7,29.82,SSW,201,0.0,0.0,89,0.00,,SCT,0.00,VWS V14.00,2013-10-23 10:08:00,
2013-10-23 06:13:00,36.2,33.2,29.82,SSW,201,0.0,0.0,89,0.00,,SCT,0.00,VWS V14.00,2013-10-23 10:13:00,
2013-10-23 06:18:00,36.1,33.2,29.82,SSW,201,0.0,0.0,89,0.00,,SCT,0.00,VWS V14.00,2013-10-23 10:18:00,
2013-10-23 06:23:00,36.0,33.2,29.82,SSW,201,0.0,0.0,89,0.00,,SCT,0.00,VWS V14.00,2013-10-23 10:23:00,
2013-10-23 06:28:00,35.9,33.1,29.81,SSW,201,0.0,0.0,89,0.00,,SCT,0.00,VWS V14.00,2013-10-23 10:28:00,
2013-10-23 06:30:00,35.5,32.7,29.82,SSW,201,0.0,0.0,90,0.00,,SCT,0.00,VWS V14.00,2013-10-23 10:30:00,
2013-10-23 06:33:00,36.1,33.3,29.81,SSW,201,0.0,0.0,89,0.00,,SCT,0.00,VWS V14.00,2013-10-23 10:33:00,
2013-10-23 06:38:00,35.9,33.2,29.81,SSW,201,0.0,0.0,90,0.00,,SCT,0.00,VWS V14.00,2013-10-23 10:38:00,
2013-10-23 06:43:00,36.1,33.4,29.81,SSW,201,0.0,0.0,90,0.00,,SCT,0.00,VWS V14.00,2013-10-23 10:43:00,
2013-10-23 06:48:00,36.0,33.2,29.81,SSW,201,0.0,0.0,89,0.00,,SCT,0.00,VWS V14.00,2013-10-23 10:48:00,
2013-10-23 06:53:00,35.7,32.9,29.81,SSW,201,0.0,0.0,89,0.00,,SCT,0.00,VWS V14.00,2013-10-23 10:53:00,
2013-10-23 06:58:00,35.3,32.4,29.81,SSW,201,0.0,0.0,89,0.00,,SCT,0.00,VWS V14.00,2013-10-23 10:58:00,
2013-10-23 07:00:00,36.2,33.3,29.82,SSW,201,0.0,0.0,89,0.00,,SCT,0.00,VWS V14.00,2013-10-23 11:00:00,
2013-10-23 07:02:00,35.1,32.2,29.81,SSW,201,0.0,0.0,89,0.00,,SCT,0.00,VWS V14.00,2013-10-23 11:02:00,
2013-10-23 07:03:00,35.1,32.2,29.81,SSW,201,0.0,0.0,89,0.00,,SCT,0.00,VWS V14.00,2013-10-23 11:03:00,
2013-10-23 07:08:00,35.1,32.2,29.81,SSW,201,0.0,0.0,89,0.00,,SCT,0.00,VWS V14.00,2013-10-23 11:08:00,
2013-10-23 07:20:00,34.0,31.4,29.81,SSW,201,0.0,0.0,90,0.00,,SCT,0.00,VWS V14.00,2013-10-23 11:20:00,
2013-10-23 07:25:00,33.6,31.1,29.81,SSW,201,0.0,0.0,90,0.00,,SCT,0.00,VWS V14.00,2013-10-23 11:25:00,
2013-10-23 07:30:00,33.2,30.7,29.81,SSW,201,0.0,0.0,90,0.00,,SCT,0.00,VWS V14.00,2013-10-23 11:30:00,
2013-10-23 07:35:00,33.0,30.6,29.81,SSW,201,0.0,0.0,91,0.00,,SCT,0.00,VWS V14.00,2013-10-23 11:35:00,
2013-10-23 07:40:00,33.2,31.0,29.81,SSW,201,0.0,0.0,92,0.00,,SCT,0.00,VWS V14.00,2013-10-23 11:40:00,
2013-10-23 07:45:00,33.4,31.2,29.81,SSW,201,0.0,0.0,92,0.00,,SCT,0.00,VWS V14.00,2013-10-23 11:45:00,
2013-10-23 07:50:00,33.8,31.8,29.81,SSW,201,0.0,0.0,92,0.00,,SCT,0.00,VWS V14.00,2013-10-23 11:50:00,
2013-10-23 07:55:00,34.1,32.0,29.81,SSW,201,0.0,0.0,92,0.00,,SCT,0.00,VWS V14.00,2013-10-23 11:55:00,
2013-10-23 08:00:00,34.0,31.9,29.81,SSW,201,0.0,0.0,92,0.00,,SCT,0.00,VWS V14.00,2013-10-23 12:00:00,
2013-10-23 08:05:00,33.9,31.8,29.81,SSW,201,0.0,0.0,92,0.00,,SCT,0.00,VWS V14.00,2013-10-23 12:05:00,
2013-10-23 08:10:00,33.6,31.5,29.81,SSW,201,0.0,0.0,92,0.00,,SCT,0.00,VWS V14.00,2013-10-23 12:10:00,
2013-10-23 08:15:00,33.4,31.4,29.82,SSW,201,0.0,0.0,92,0.00,,SCT,0.00,VWS V14.00,2013-10-23 12:15:00,
2013-10-23 08:20:00,33.3,31.3,29.82,SSW,201,0.0,0.0,92,0.00,,SCT,0.00,VWS V14.00,2013-10-23 12:20:00,
2013-10-23 08:25:00,33.2,31.3,29.82,SSW,201,0.0,0.0,92,0.00,,SCT,0.00,VWS V14.00,2013-10-23 12:25:00,
2013-10-23 08:30:00,33.3,31.4,29.82,SSW,201,0.0,0.0,93,0.00,,SCT,0.00,VWS V14.00,2013-10-23 12:30:00,
2013-10-23 08:35:00,33.8,32.0,29.82,SSW,201,0.0,0.0,93,0.00,,SCT,0.00,VWS V14.00,2013-10-23 12:35:00,
2013-10-23 08:40:00,34.2,32.4,29.82,SSW,201,0.0,0.0,93,0.00,,SCT,0.00,VWS V14.00,2013-10-23 12:40:00,
2013-10-23 08:45:00,34.7,32.9,29.82,SSW,201,0.0,0.0,93,0.00,,SCT,0.00,VWS V14.00,2013-10-23 12:45:00,
2013-10-23 08:50:00,35.0,33.2,29.82,SSW,201,0.0,0.0,93,0.00,,SCT,0.00,VWS V14.00,2013-10-23 12:50:00,
2013-10-23 08:55:00,35.4,33.6,29.82,SSW,201,0.0,0.0,93,0.00,,SCT,0.00,VWS V14.00,2013-10-23 12:55:00,
2013-10-23 09:00:00,35.7,33.9,29.82,SSW,201,0.0,0.0,93,0.00,,SCT,0.00,VWS V14.00,2013-10-23 13:00:00,
2013-10-23 09:05:00,36.3,34.5,29.82,SSW,201,0.0,0.0,93,0.00,,SCT,0.00,VWS V14.00,2013-10-23 13:05:00,
2013-10-23 09:10:00,36.6,34.7,29.82,SSW,201,0.0,0.0,93,0.00,,SCT,0.00,VWS V14.00,2013-10-23 13:10:00,
2013-10-23 09:15:00,37.2,35.3,29.82,SSW,201,0.0,0.0,93,0.00,,SCT,0.00,VWS V14.00,2013-10-23 13:15:00,
2013-10-23 09:20:00,37.8,35.8,29.82,SSW,201,0.0,0.0,92,0.00,,SCT,0.00,VWS V14.00,2013-10-23 13:20:00,
2013-10-23 09:25:00,38.5,36.4,29.82,WSW,252,2.3,3.5,92,0.00,,SCT,0.00,VWS V14.00,2013-10-23 13:25:00,
2013-10-23 09:30:00,38.7,36.3,29.82,South,187,1.2,5.0,91,0.00,,SCT,0.00,VWS V14.00,2013-10-23 13:30:00,
2013-10-23 09:35:00,39.1,36.6,29.82,West,267,0.0,5.0,90,0.00,,SCT,0.00,VWS V14.00,2013-10-23 13:35:00,
2013-10-23 09:40:00,39.2,35.9,29.82,WNW,284,3.0,5.8,88,0.00,,SCT,0.00,VWS V14.00,2013-10-23 13:40:00,
2013-10-23 09:45:00,39.6,36.0,29.82,North,357,0.0,5.8,87,0.00,,SCT,0.00,VWS V14.00,2013-10-23 13:45:00,
2013-10-23 09:50:00,40.1,36.3,29.81,West,267,4.5,6.1,86,0.00,,SCT,0.00,VWS V14.00,2013-10-23 13:50:00,
2013-10-23 09:55:00,39.7,35.0,29.82,West,263,3.4,7.6,83,0.00,,SCT,0.00,VWS V14.00,2013-10-23 13:55:00,
2013-10-23 10:00:00,39.5,35.0,29.81,WNW,300,4.9,6.6,84,0.00,,SCT,0.00,VWS V14.00,2013-10-23 14:00:00,
2013-10-23 10:06:00,39.5,35.2,29.81,WNW,292,1.1,6.6,85,0.00,,SCT,0.00,VWS V14.00,2013-10-23 14:06:00,
2013-10-23 10:11:00,39.5,35.4,29.81,West,276,0.0,6.6,85,0.00,,SCT,0.00,VWS V14.00,2013-10-23 14:11:00,
2013-10-23 10:16:00,39.4,35.4,29.81,West,276,0.0,6.6,85,0.00,,SCT,0.00,VWS V14.00,2013-10-23 14:16:00,
2013-10-23 10:21:00,39.8,35.5,29.81,South,184,0.5,6.6,84,0.00,,SCT,0.00,VWS V14.00,2013-10-23 14:21:00,
2013-10-23 10:26:00,40.0,35.0,29.81,SSW,212,0.0,6.6,82,0.00,,SCT,0.00,VWS V14.00,2013-10-23 14:26:00,
2013-10-23 10:30:00,38.5,36.2,29.82,WSW,250,3.0,4.7,91,0.00,,SCT,0.00,VWS V14.00,2013-10-23 14:30:00,
2013-10-23 10:31:00,40.0,34.8,29.81,SSW,212,0.0,0.0,82,0.00,,SCT,0.00,VWS V14.00,2013-10-23 14:31:00,
2013-10-23 10:36:00,40.1,34.8,29.81,SSW,212,0.0,0.0,81,0.00,,SCT,0.00,VWS V14.00,2013-10-23 14:36:00,
2013-10-23 10:41:00,40.3,34.8,29.81,SSW,202,0.0,2.4,81,0.00,,SCT,0.00,VWS V14.00,2013-10-23 14:41:00,
2013-10-23 10:46:00,40.5,34.8,29.80,SW,221,0.0,2.4,80,0.00,,SCT,0.00,VWS V14.00,2013-10-23 14:46:00,
2013-10-23 10:51:00,41.0,35.2,29.80,South,186,0.2,3.9,80,0.00,,SCT,0.00,VWS V14.00,2013-10-23 14:51:00,
2013-10-23 10:56:00,41.6,35.2,29.80,SSW,195,0.0,3.9,78,0.00,,SCT,0.00,VWS V14.00,2013-10-23 14:56:00,
2013-10-23 11:00:00,39.6,35.0,29.82,West,266,5.2,7.6,83,0.00,,SCT,0.00,VWS V14.00,2013-10-23 15:00:00,
2013-10-23 11:01:00,41.9,34.8,29.80,West,266,0.0,5.1,76,0.00,,SCT,0.00,VWS V14.00,2013-10-23 15:01:00,
2013-10-23 11:06:00,42.4,35.1,29.80,ENE,69,0.0,5.1,75,0.00,,SCT,0.00,VWS V14.00,2013-10-23 15:06:00,
2013-10-23 11:11:00,42.3,34.5,29.80,SSW,210,1.8,7.0,74,0.00,,SCT,0.00,VWS V14.00,2013-10-23 15:11:00,
2013-10-23 11:16:00,42.5,33.9,29.80,SSW,194,2.2,7.1,71,0.00,,SCT,0.00,VWS V14.00,2013-10-23 15:16:00,
2013-10-23 11:21:00,42.8,34.5,29.79,SW,232,5.0,8.2,72,0.00,,SCT,0.00,VWS V14.00,2013-10-23 15:21:00,
2013-10-23 11:26:00,43.4,34.2,29.79,SW,236,2.5,8.9,70,0.00,,SCT,0.00,VWS V14.00,2013-10-23 15:26:00,
2013-10-23 11:30:00,40.0,34.8,29.81,SSW,212,0.0,6.6,82,0.00,,SCT,0.00,VWS V14.00,2013-10-23 15:30:00,
2013-10-23 11:31:00,43.6,34.0,29.79,SSE,158,3.7,8.2,69,0.00,,SCT,0.00,VWS V14.00,2013-10-23 15:31:00,
2013-10-23 11:36:00,43.8,34.0,29.79,WSW,238,5.8,8.2,68,0.00,,SCT,0.00,VWS V14.00,2013-10-23 15:36:00,
2013-10-23 11:41:00,43.8,34.2,29.79,West,260,3.6,8.2,69,0.00,,SCT,0.00,VWS V14.00,2013-10-23 15:41:00,
2013-10-23 11:46:00,43.2,32.7,29.79,SSW,210,4.8,8.2,66,0.00,,SCT,0.00,VWS V14.00,2013-10-23 15:46:00,
2013-10-23 11:51:00,43.2,32.5,29.79,WSW,257,3.8,8.2,66,0.00,,SCT,0.00,VWS V14.00,2013-10-23 15:51:00,
2013-10-23 11:56:00,43.6,33.0,29.79,SW,217,0.0,8.2,66,0.00,,SCT,0.00,VWS V14.00,2013-10-23 15:56:00,
2013-10-23 12:00:00,41.8,35.5,29.80,West,263,5.0,5.0,78,0.00,,SCT,0.00,VWS V14.00,2013-10-23 16:00:00,
2013-10-23 12:01:00,43.7,32.1,29.78,West,262,4.5,9.8,64,0.00,,SCT,0.00,VWS V14.00,2013-10-23 16:01:00,
2013-10-23 12:06:00,43.4,32.2,29.79,WSW,255,4.0,9.8,64,0.00,,SCT,0.00,VWS V14.00,2013-10-23 16:06:00,
2013-10-23 12:11:00,43.5,33.2,29.78,South,183,1.9,9.8,67,0.00,,SCT,0.00,VWS V14.00,2013-10-23 16:11:00,
2013-10-23 12:16:00,43.8,33.5,29.78,WSW,242,1.3,9.8,67,0.00,,SCT,0.00,VWS V14.00,2013-10-23 16:16:00,
2013-10-23 12:21:00,43.9,33.2,29.78,SW,233,4.4,9.8,66,0.00,,SCT,0.00,VWS V14.00,2013-10-23 16:21:00,
2013-10-23 12:26:00,44.0,33.2,29.78,WSW,240,0.0,9.8,65,0.00,,SCT,0.00,VWS V14.00,2013-10-23 16:26:00,
2013-10-23 12:30:00,43.6,34.2,29.80,SSW,208,5.1,9.5,69,0.00,,SCT,0.00,VWS V14.00,2013-10-23 16:30:00,
2013-10-23 12:31:00,44.1,33.0,29.78,SSW,193,7.9,7.9,65,0.00,,SCT,0.00,VWS V14.00,2013-10-23 16:31:00,
2013-10-23 12:36:00,44.2,32.7,29.77,WNW,291,4.2,8.3,64,0.00,,SCT,0.00,VWS V14.00,2013-10-23 16:36:00,
2013-10-23 12:41:00,44.7,33.6,29.77,WSW,255,3.2,8.3,65,0.00,,SCT,0.00,VWS V14.00,2013-10-23 16:41:00,
2013-10-23 12:46:00,44.5,31.6,29.77,West,278,9.4,9.4,60,0.00,,SCT,0.00,VWS V14.00,2013-10-23 16:46:00,
2013-10-23 12:51:00,44.4,32.5,29.77,West,270,3.8,10.0,63,0.00,,SCT,0.00,VWS V14.00,2013-10-23 16:51:00,
2013-10-23 12:56:00,44.3,32.1,29.77,SW,229,3.0,10.0,62,0.00,,SCT,0.00,VWS V14.00,2013-10-23 16:56:00,
2013-10-23 13:00:00,43.7,33.0,29.78,SSW,198,0.0,8.2,66,0.00,,SCT,0.00,VWS V14.00,2013-10-23 17:00:00,
2013-10-23 13:01:00,44.3,32.9,29.76,WSW,243,4.5,6.4,64,0.00,,SCT,0.00,VWS V14.00,2013-10-23 17:01:00,
2013-10-23 13:06:00,44.2,31.8,29.76,WSW,252,2.6,8.5,61,0.00,,SCT,0.00,VWS V14.00,2013-10-23 17:06:00,
2013-10-23 13:11:00,44.2,32.5,29.76,SW,232,5.0,8.5,63,0.00,,SCT,0.00,VWS V14.00,2013-10-23 17:11:00,
2013-10-23 13:16:00,44.3,32.0,29.76,West,273,4.4,9.4,62,0.00,,SCT,0.00,VWS V14.00,2013-10-23 17:16:00,
2013-10-23 13:21:00,44.7,32.9,29.76,SSW,205,3.2,9.4,63,0.00,,SCT,0.00,VWS V14.00,2013-10-23 17:21:00,
2013-10-23 13:26:00,44.9,32.7,29.75,SW,232,0.0,9.4,62,0.00,,SCT,0.00,VWS V14.00,2013-10-23 17:26:00,
2013-10-23 13:30:00,44.1,33.4,29.78,WSW,240,0.0,9.8,66,0.00,,SCT,0.00,VWS V14.00,2013-10-23 17:30:00,
2013-10-23 13:31:00,44.9,32.2,29.75,WNW,283,7.2,8.9,61,0.00,,SCT,0.00,VWS V14.00,2013-10-23 17:31:00,
2013-10-23 13:36:00,45.2,32.3,29.74,South,184,3.4,8.9,60,0.00,,SCT,0.00,VWS V14.00,2013-10-23 17:36:00,
2013-10-23 13:41:00,45.5,32.5,29.74,WSW,239,3.4,8.9,60,0.00,,SCT,0.00,VWS V14.00,2013-10-23 17:41:00,
2013-10-23 13:46:00,45.4,31.2,29.74,West,260,7.3,10.2,57,0.00,,SCT,0.00,VWS V14.00,2013-10-23 17:46:00,
2013-10-23 13:51:00,45.8,31.5,29.74,WSW,253,4.8,10.2,57,0.00,,SCT,0.00,VWS V14.00,2013-10-23 17:51:00,
2013-10-23 13:56:00,45.8,32.5,29.74,SW,214,4.2,10.2,59,0.00,,SCT,0.00,VWS V14.00,2013-10-23 17:56:00,
2013-10-23 14:00:00,44.3,32.2,29.76,West,259,4.5,10.0,62,0.00,,SCT,0.00,VWS V14.00,2013-10-23 18:00:00,
2013-10-23 14:01:00,45.7,32.6,29.74,SW,225,5.2,9.6,60,0.00,,SCT,0.00,VWS V14.00,2013-10-23 18:01:00,
2013-10-23 14:06:00,45.9,32.3,29.73,WSW,257,5.7,9.6,59,0.00,,SCT,0.00,VWS V14.00,2013-10-23 18:06:00,
2013-10-23 14:11:00,45.8,31.3,29.73,WNW,294,7.4,9.6,57,0.00,,SCT,0.00,VWS V14.00,2013-10-23 18:11:00,
2013-10-23 14:16:00,45.9,31.5,29.73,WNW,295,6.5,9.6,57,0.00,,SCT,0.00,VWS V14.00,2013-10-23 18:16:00,
2013-10-23 14:21:00,45.7,31.6,29.73,West,262,0.6,9.6,58,0.00,,SCT,0.00,VWS V14.00,2013-10-23 18:21:00,
2013-10-23 14:26:00,45.7,30.9,29.73,SW,224,3.2,9.6,56,0.00,,SCT,0.00,VWS V14.00,2013-10-23 18:26:00,
2013-10-23 14:30:00,44.7,31.9,29.75,WSW,252,1.5,9.4,60,0.00,,SCT,0.00,VWS V14.00,2013-10-23 18:30:00,
2013-10-23 14:31:00,45.7,31.3,29.73,WSW,240,2.7,9.6,57,0.00,,SCT,0.00,VWS V14.00,2013-10-23 18:31:00,
2013-10-23 14:36:00,45.7,31.9,29.73,SW,233,6.2,9.6,58,0.00,,SCT,0.00,VWS V14.00,2013-10-23 18:36:00,
2013-10-23 14:41:00,45.9,32.2,29.73,NW,315,0.9,9.6,59,0.00,,SCT,0.00,VWS V14.00,2013-10-23 18:41:00,
2013-10-23 14:46:00,45.7,32.1,29.73,NW,309,5.3,9.6,59,0.00,,SCT,0.00,VWS V14.00,2013-10-23 18:46:00,
2013-10-23 14:51:00,45.4,30.9,29.73,West,263,5.1,11.1,57,0.00,,SCT,0.00,VWS V14.00,2013-10-23 18:51:00,
2013-10-23 14:56:00,45.5,30.3,29.73,WNW,283,5.8,11.1,55,0.00,,SCT,0.00,VWS V14.00,2013-10-23 18:56:00,
2013-10-23 15:00:00,45.8,32.2,29.74,SSW,202,5.9,10.2,59,0.00,,SCT,0.00,VWS V14.00,2013-10-23 19:00:00,
2013-10-23 15:01:00,45.5,31.3,29.73,NW,311,5.1,6.5,57,0.00,,SCT,0.00,VWS V14.00,2013-10-23 19:01:00,
2013-10-23 15:06:00,45.4,31.6,29.73,WNW,292,3.9,8.1,58,0.00,,SCT,0.00,VWS V14.00,2013-10-23 19:06:00,
2013-10-23 15:11:00,45.5,31.7,29.73,WSW,255,3.9,8.1,58,0.00,,SCT,0.00,VWS V14.00,2013-10-23 19:11:00,
2013-10-23 15:16:00,45.3,30.9,29.73,SSW,210,5.0,8.1,57,0.00,,SCT,0.00,VWS V14.00,2013-10-23 19:16:00,
2013-10-23 15:21:00,45.4,31.2,29.73,WSW,252,3.8,8.1,57,0.00,,SCT,0.00,VWS V14.00,2013-10-23 19:21:00,
2013-10-23 15:26:00,45.3,31.2,29.72,WSW,238,2.5,8.1,58,0.00,,SCT,0.00,VWS V14.00,2013-10-23 19:26:00,
2013-10-23 15:30:00,45.8,31.8,29.73,WSW,257,3.9,9.6,58,0.00,,SCT,0.00,VWS V14.00,2013-10-23 19:30:00,
2013-10-23 15:31:00,45.3,31.7,29.72,West,271,3.2,7.0,59,0.00,,SCT,0.00,VWS V14.00,2013-10-23 19:31:00,
2013-10-23 15:36:00,45.2,31.2,29.72,West,278,5.3,7.8,58,0.00,,SCT,0.00,VWS V14.00,2013-10-23 19:36:00,
2013-10-23 15:41:00,45.1,31.2,29.73,West,276,8.9,9.4,58,0.00,,SCT,0.00,VWS V14.00,2013-10-23 19:41:00,
2013-10-23 15:46:00,45.2,32.0,29.73,WNW,301,0.0,9.9,60,0.00,,SCT,0.00,VWS V14.00,2013-10-23 19:46:00,
2013-10-23 15:51:00,45.3,32.5,29.73,West,259,3.1,9.9,61,0.00,,SCT,0.00,VWS V14.00,2013-10-23 19:51:00,
2013-10-23 15:56:00,45.4,32.1,29.73,SW,218,4.5,9.9,60,0.00,,SCT,0.00,VWS V14.00,2013-10-23 19:56:00,
2013-10-23 16:00:00,45.4,30.5,29.73,West,269,6.5,11.1,56,0.00,,SCT,0.00,VWS V14.00,2013-10-23 20:00:00,
2013-10-23 16:01:00,45.3,32.5,29.73,West,264,3.5,9.3,61,0.00,,SCT,0.00,VWS V14.00,2013-10-23 20:01:00,
2013-10-23 16:06:00,45.3,32.5,29.73,WNW,283,1.2,9.3,61,0.00,,SCT,0.00,VWS V14.00,2013-10-23 20:06:00,
2013-10-23 16:11:00,45.2,32.2,29.73,West,269,5.9,9.3,60,0.00,,SCT,0.00,VWS V14.00,2013-10-23 20:11:00,
2013-10-23 16:16:00,45.2,32.4,29.73,West,264,4.0,9.3,61,0.00,,SCT,0.00,VWS V14.00,2013-10-23 20:16:00,
2013-10-23 16:21:00,45.1,32.3,29.73,West,264,2.1,9.3,61,0.00,,SCT,0.00,VWS V14.00,2013-10-23 20:21:00,
2013-10-23 16:26:00,45.3,32.4,29.73,West,277,2.0,9.3,60,0.00,,SCT,0.00,VWS V14.00,2013-10-23 20:26:00,
2013-10-23 16:30:00,45.3,31.5,29.73,SSW,198,0.0,8.1,58,0.00,,SCT,0.00,VWS V14.00,2013-10-23 20:30:00,
2013-10-23 16:31:00,45.2,32.0,29.73,WSW,238,3.9,7.4,60,0.00,,SCT,0.00,VWS V14.00,2013-10-23 20:31:00,
2013-10-23 16:36:00,45.3,32.3,29.73,West,271,4.2,9.8,60,0.00,,SCT,0.00,VWS V14.00,2013-10-23 20:36:00,
2013-10-23 16:41:00,45.6,31.9,29.73,West,270,7.0,9.8,58,0.00,,SCT,0.00,VWS V14.00,2013-10-23 20:41:00,
2013-10-23 16:46:00,45.7,31.6,29.73,West,263,6.4,9.8,58,0.00,,SCT,0.00,VWS V14.00,2013-10-23 20:46:00,
2013-10-23 16:51:00,45.5,31.9,29.73,NW,304,6.1,10.1,59,0.00,,SCT,0.00,VWS V14.00,2013-10-23 20:51:00,
2013-10-23 16:57:00,45.6,31.7,29.73,SW,231,6.2,10.1,58,0.00,,SCT,0.00,VWS V14.00,2013-10-23 20:57:00,
2013-10-23 17:00:00,45.3,31.9,29.73,West,280,2.0,9.9,59,0.00,,SCT,0.00,VWS V14.00,2013-10-23 21:00:00,
2013-10-23 17:07:00,45.0,31.7,29.73,SSW,204,4.0,7.1,59,0.00,,SCT,0.00,VWS V14.00,2013-10-23 21:07:00,
2013-10-23 17:12:00,45.0,32.2,29.73,SW,233,3.7,7.6,60,0.00,,SCT,0.00,VWS V14.00,2013-10-23 21:12:00,
2013-10-23 17:17:00,45.0,32.1,29.73,WSW,248,3.4,7.6,60,0.00,,SCT,0.00,VWS V14.00,2013-10-23 21:17:00,
2013-10-23 17:22:00,44.9,32.2,29.74,SSW,201,1.1,7.6,61,0.00,,SCT,0.00,VWS V14.00,2013-10-23 21:22:00,
2013-10-23 17:27:00,45.0,32.7,29.74,SW,226,4.3,7.6,62,0.00,,SCT,0.00,VWS V14.00,2013-10-23 21:27:00,
2013-10-23 17:30:00,45.3,32.8,29.73,WNW,284,4.7,9.3,61,0.00,,SCT,0.00,VWS V14.00,2013-10-23 21:30:00,
2013-10-23 17:32:00,44.9,32.8,29.74,SW,235,4.0,6.9,62,0.00,,SCT,0.00,VWS V14.00,2013-10-23 21:32:00,
2013-10-23 17:37:00,44.7,32.7,29.74,SSW,211,4.2,6.9,62,0.00,,SCT,0.00,VWS V14.00,2013-10-23 21:37:00,
2013-10-23 17:42:00,44.5,32.8,29.74,WSW,242,0.0,7.0,63,0.00,,SCT,0.00,VWS V14.00,2013-10-23 21:42:00,
2013-10-23 17:47:00,44.3,32.8,29.74,WSW,242,4.6,7.0,64,0.00,,SCT,0.00,VWS V14.00,2013-10-23 21:47:00,
2013-10-23 17:52:00,44.2,32.8,29.74,WSW,239,1.1,7.0,64,0.00,,SCT,0.00,VWS V14.00,2013-10-23 21:52:00,
2013-10-23 17:57:00,44.0,32.8,29.74,West,259,0.0,7.0,64,0.00,,SCT,0.00,VWS V14.00,2013-10-23 21:57:00,
2013-10-23 18:00:00,45.6,31.7,29.73,WSW,249,4.2,10.1,58,0.00,,SCT,0.00,VWS V14.00,2013-10-23 22:00:00,
2013-10-23 18:02:00,43.9,32.9,29.74,West,259,0.0,0.0,65,0.00,,SCT,0.00,VWS V14.00,2013-10-23 22:02:00,
2013-10-23 18:07:00,43.6,32.7,29.74,West,259,0.0,0.0,65,0.00,,SCT,0.00,VWS V14.00,2013-10-23 22:07:00,
2013-10-23 18:12:00,43.5,32.8,29.74,West,259,0.0,0.0,66,0.00,,SCT,0.00,VWS V14.00,2013-10-23 22:12:00,
2013-10-23 18:17:00,43.4,32.9,29.74,West,259,0.0,0.0,66,0.00,,SCT,0.00,VWS V14.00,2013-10-23 22:17:00,
2013-10-23 18:22:00,43.1,32.8,29.74,West,259,0.0,0.0,67,0.00,,SCT,0.00,VWS V14.00,2013-10-23 22:22:00,
2013-10-23 18:27:00,42.9,32.8,29.74,West,259,0.0,0.0,67,0.00,,SCT,0.00,VWS V14.00,2013-10-23 22:27:00,
2013-10-23 18:30:00,45.0,32.7,29.74,WSW,243,2.6,7.6,62,0.00,,SCT,0.00,VWS V14.00,2013-10-23 22:30:00,
2013-10-23 18:32:00,42.6,32.7,29.74,SW,217,0.0,3.1,68,0.00,,SCT,0.00,VWS V14.00,2013-10-23 22:32:00,
2013-10-23 18:37:00,42.5,32.6,29.74,SW,229,0.0,3.1,68,0.00,,SCT,0.00,VWS V14.00,2013-10-23 22:37:00,
2013-10-23 18:42:00,42.4,32.7,29.75,SW,229,0.0,3.1,68,0.00,,SCT,0.00,VWS V14.00,2013-10-23 22:42:00,
2013-10-23 18:47:00,42.3,32.7,29.75,SW,229,0.0,3.1,68,0.00,,SCT,0.00,VWS V14.00,2013-10-23 22:47:00,
2013-10-23 18:52:00,42.3,32.8,29.75,SW,232,3.8,3.8,69,0.00,,SCT,0.00,VWS V14.00,2013-10-23 22:52:00,
2013-10-23 18:57:00,42.2,32.7,29.75,South,170,0.0,4.0,69,0.00,,SCT,0.00,VWS V14.00,2013-10-23 22:57:00,
2013-10-23 19:00:00,44.0,32.8,29.74,West,259,0.0,7.0,65,0.00,,SCT,0.00,VWS V14.00,2013-10-23 23:00:00,
2013-10-23 19:02:00,42.1,32.8,29.75,SSW,211,1.7,4.8,69,0.00,,SCT,0.00,VWS V14.00,2013-10-23 23:02:00,
2013-10-23 19:07:00,42.0,32.7,29.75,SSW,204,0.0,4.8,69,0.00,,SCT,0.00,VWS V14.00,2013-10-23 23:07:00,
2013-10-23 19:12:00,41.9,32.7,29.75,SSW,197,0.0,4.8,70,0.00,,SCT,0.00,VWS V14.00,2013-10-23 23:12:00,
2013-10-23 19:17:00,41.7,32.6,29.75,SW,235,3.0,4.8,70,0.00,,SCT,0.00,VWS V14.00,2013-10-23 23:17:00,
2013-10-23 19:22:00,41.7,32.7,29.75,SW,224,1.7,4.8,70,0.00,,SCT,0.00,VWS V14.00,2013-10-23 23:22:00,
2013-10-23 19:27:00,41.6,32.6,29.75,SW,218,2.9,6.9,70,0.00,,SCT,0.00,VWS V14.00,2013-10-23 23:27:00,
2013-10-23 19:30:00,42.9,32.8,29.74,West,259,0.0,0.0,67,0.00,,SCT,0.00,VWS V14.00,2013-10-23 23:30:00,
2013-10-23 19:32:00,41.5,32.6,29.75,SW,222,5.8,8.1,70,0.00,,SCT,0.00,VWS V14.00,2013-10-23 23:32:00,
2013-10-23 19:37:00,41.4,32.6,29.75,SW,217,2.5,8.1,71,0.00,,SCT,0.00,VWS V14.00,2013-10-23 23:37:00,
2013-10-23 19:42:00,41.3,32.6,29.75,SW,228,1.4,8.5,71,0.00,,SCT,0.00,VWS V14.00,2013-10-23 23:42:00,
2013-10-23 19:47:00,41.0,32.4,29.75,SW,224,3.9,8.5,71,0.00,,SCT,0.00,VWS V14.00,2013-10-23 23:47:00,
2013-10-23 19:52:00,40.9,32.5,29.75,SW,228,2.9,9.3,72,0.00,,SCT,0.00,VWS V14.00,2013-10-23 23:52:00,
2013-10-23 19:57:00,40.8,32.5,29.75,WSW,252,3.9,9.3,72,0.00,,SCT,0.00,VWS V14.00,2013-10-23 23:57:00,
2013-10-23 20:00:00,42.2,32.7,29.75,SW,228,2.4,4.0,69,0.00,,SCT,0.00,VWS V14.00,2013-10-24 00:00:00,
2013-10-23 20:02:00,40.8,32.6,29.75,WSW,238,6.9,7.1,72,0.00,,SCT,0.00,VWS V14.00,2013-10-24 00:02:00,
2013-10-23 20:07:00,40.7,32.5,29.75,SW,226,3.2,7.3,72,0.00,,SCT,0.00,VWS V14.00,2013-10-24 00:07:00,
2013-10-23 20:12:00,40.5,32.6,29.75,SW,233,4.7,8.3,73,0.00,,SCT,0.00,VWS V14.00,2013-10-24 00:12:00,
2013-10-23 20:17:00,40.5,32.7,29.75,SW,221,4.6,8.3,74,0.00,,SCT,0.00,VWS V14.00,2013-10-24 00:17:00,
2013-10-23 20:22:00,40.3,32.7,29.75,SW,226,5.2,8.3,74,0.00,,SCT,0.00,VWS V14.00,2013-10-24 00:22:00,
2013-10-23 20:27:00,40.3,32.8,29.75,WSW,243,2.9,9.1,74,0.00,,SCT,0.00,VWS V14.00,2013-10-24 00:27:00,
2013-10-23 20:30:00,41.6,32.6,29.75,South,176,3.4,6.9,70,0.00,,SCT,0.00,VWS V14.00,2013-10-24 00:30:00,
2013-10-23 20:32:00,40.2,32.8,29.75,SW,226,3.2,5.5,75,0.00,,SCT,0.00,VWS V14.00,2013-10-24 00:32:00,
2013-10-23 20:37:00,40.1,32.8,29.75,South,181,2.1,6.8,75,0.00,,SCT,0.00,VWS V14.00,2013-10-24 00:37:00,
2013-10-23 20:42:00,39.9,32.8,29.75,WSW,242,2.1,6.8,76,0.00,,SCT,0.00,VWS V14.00,2013-10-24 00:42:00,
2013-10-23 20:47:00,39.7,32.8,29.76,SW,222,4.7,6.8,76,0.00,,SCT,0.00,VWS V14.00,2013-10-24 00:47:00,
2013-10-23 20:52:00,39.6,32.9,29.76,SW,218,2.5,6.8,77,0.00,,SCT,0.00,VWS V14.00,2013-10-24 00:52:00,
2013-10-23 20:57:00,39.5,32.9,29.76,SW,236,4.0,6.8,77,0.00,,SCT,0.00,VWS V14.00,2013-10-24 00:57:00,
2013-10-23 21:00:00,40.8,32.5,29.75,SW,229,5.0,9.3,72,0.00,,SCT,0.00,VWS V14.00,2013-10-24 01:00:00,
2013-10-23 21:02:00,39.4,33.0,29.76,SW,219,1.4,5.3,78,0.00,,SCT,0.00,VWS V14.00,2013-10-24 01:02:00,
2013-10-23 21:07:00,39.4,33.0,29.76,SW,229,2.2,5.5,78,0.00,,SCT,0.00,VWS V14.00,2013-10-24 01:07:00,
2013-10-23 21:12:00,39.3,33.0,29.76,WSW,243,3.0,5.6,78,0.00,,SCT,0.00,VWS V14.00,2013-10-24 01:12:00,
2013-10-23 21:17:00,39.3,33.1,29.76,WSW,240,0.7,5.6,78,0.00,,SCT,0.00,VWS V14.00,2013-10-24 01:17:00,
2013-10-23 21:22:00,39.1,33.0,29.76,SW,217,0.0,5.6,78,0.00,,SCT,0.00,VWS V14.00,2013-10-24 01:22:00,
2013-10-23 21:27:00,39.1,33.1,29.76,SSW,208,0.0,5.6,79,0.00,,SCT,0.00,VWS V14.00,2013-10-24 01:27:00,
2013-10-23 21:30:00,40.3,32.8,29.75,SW,233,3.2,9.1,74,0.00,,SCT,0.00,VWS V14.00,2013-10-24 01:30:00,
2013-10-23 21:32:00,39.2,33.2,29.76,SSW,208,0.0,0.0,79,0.00,,SCT,0.00,VWS V14.00,2013-10-24 01:32:00,
2013-10-23 21:37:00,39.2,33.2,29.76,SSW,208,0.0,0.0,79,0.00,,SCT,0.00,VWS V14.00,2013-10-24 01:37:00,
2013-10-23 21:42:00,39.1,33.0,29.77,SSW,208,0.0,0.0,79,0.00,,SCT,0.00,VWS V14.00,2013-10-24 01:42:00,
2013-10-23 21:47:00,39.2,33.2,29.77,SSW,208,0.0,0.0,79,0.00,,SCT,0.00,VWS V14.00,2013-10-24 01:47:00,
2013-10-23 21:52:00,39.1,32.9,29.77,SSW,208,0.0,0.0,78,0.00,,SCT,0.00,VWS V14.00,2013-10-24 01:52:00,
2013-10-23 21:57:00,39.0,32.0,29.77,West,281,0.0,4.0,76,0.00,,SCT,0.00,VWS V14.00,2013-10-24 01:57:00,
2013-10-23 22:00:00,39.5,32.9,29.76,SW,236,4.7,6.8,77,0.00,,SCT,0.00,VWS V14.00,2013-10-24 02:00:00,
2013-10-23 22:02:00,38.9,32.3,29.78,West,281,0.0,0.0,77,0.00,,SCT,0.00,VWS V14.00,2013-10-24 02:02:00,
2013-10-23 22:07:00,39.0,32.0,29.78,NW,307,3.2,7.5,76,0.00,,SCT,0.00,VWS V14.00,2013-10-24 02:07:00,
2013-10-23 22:12:00,38.9,31.5,29.78,NW,304,2.9,7.6,75,0.00,,SCT,0.00,VWS V14.00,2013-10-24 02:12:00,
2013-10-23 22:17:00,38.7,30.8,29.78,NW,315,2.5,7.6,73,0.00,,SCT,0.00,VWS V14.00,2013-10-24 02:17:00,
2013-10-23 22:22:00,38.4,28.7,29.79,NW,309,6.6,12.6,68,0.00,,SCT,0.00,VWS V14.00,2013-10-24 02:22:00,
2013-10-23 22:27:00,38.3,28.5,29.79,WNW,301,3.7,12.6,68,0.00,,SCT,0.00,VWS V14.00,2013-10-24 02:27:00,
2013-10-23 22:30:00,39.0,33.0,29.76,SSW,208,0.0,5.6,79,0.00,,SCT,0.00,VWS V14.00,2013-10-24 02:30:00,
2013-10-23 22:32:00,38.1,28.2,29.79,WNW,292,3.7,6.8,67,0.00,,SCT,0.00,VWS V14.00,2013-10-24 02:32:00,
2013-10-23 22:37:00,38.0,27.9,29.79,NW,308,3.9,8.0,67,0.00,,SCT,0.00,VWS V14.00,2013-10-24 02:37:00,
2013-10-23 22:42:00,37.8,28.0,29.79,WNW,283,2.8,8.0,67,0.00,,SCT,0.00,VWS V14.00,2013-10-24 02:42:00,
2013-10-23 22:47:00,37.5,27.7,29.79,WSW,256,1.0,8.0,67,0.00,,SCT,0.00,VWS V14.00,2013-10-24 02:47:00,
2013-10-23 22:52:00,37.3,27.7,29.79,NW,308,0.0,8.0,68,0.00,,SCT,0.00,VWS V14.00,2013-10-24 02:52:00,
2013-10-23 22:57:00,37.4,27.9,29.79,NW,308,0.0,8.0,68,0.00,,SCT,0.00,VWS V14.00,2013-10-24 02:57:00,
2013-10-23 23:00:00,39.1,32.2,29.77,West,281,0.0,4.0,76,0.00,,SCT,0.00,VWS V14.00,2013-10-24 03:00:00,
2013-10-23 23:02:00,37.1,27.8,29.79,NW,308,0.0,0.0,69,0.00,,SCT,0.00,VWS V14.00,2013-10-24 03:02:00,
2013-10-23 23:07:00,37.0,27.8,29.79,NW,308,0.0,0.0,69,0.00,,SCT,0.00,VWS V14.00,2013-10-24 03:07:00,
2013-10-23 23:12:00,36.8,27.7,29.79,NW,308,0.0,0.0,69,0.00,,SCT,0.00,VWS V14.00,2013-10-24 03:12:00,
2013-10-23 23:17:00,36.4,27.7,29.79,NW,308,0.0,0.0,70,0.00,,SCT,0.00,VWS V14.00,2013-10-24 03:17:00,
2013-10-23 23:23:00,35.8,27.4,29.79,NW,308,0.0,0.0,71,0.00,,SCT,0.00,VWS V14.00,2013-10-24 03:23:00,
2013-10-23 23:28:00,35.3,27.3,29.79,NW,308,0.0,0.0,72,0.00,,SCT,0.00,VWS V14.00,2013-10-24 03:28:00,
2013-10-23 23:30:00,38.3,28.5,29.79,WNW,301,4.2,12.6,68,0.00,,SCT,0.00,VWS V14.00,2013-10-24 03:30:00,
2013-10-23 23:33:00,34.9,27.2,29.79,NW,308,0.0,0.0,73,0.00,,SCT,0.00,VWS V14.00,2013-10-24 03:33:00,
2013-10-23 23:38:00,34.5,27.1,29.79,NW,308,0.0,0.0,74,0.00,,SCT,0.00,VWS V14.00,2013-10-24 03:38:00,
2013-10-23 23:43:00,34.2,27.2,29.79,NW,308,0.0,0.0,75,0.00,,SCT,0.00,VWS V14.00,2013-10-24 03:43:00,
2013-10-23 23:48:00,33.6,27.1,29.79,NW,308,0.0,0.0,77,0.00,,SCT,0.00,VWS V14.00,2013-10-24 03:48:00,
2013-10-23 23:53:00,33.0,26.9,29.79,NW,308,0.0,0.0,78,0.00,,SCT,0.00,VWS V14.00,2013-10-24 03:53:00,